Aérodrome :
LOGIN :

S'inscrire | Disclaimer

   EN    FR    IT 

 










Légende :    VFR   VFR Marginal   IFR   IFR Intensif   IFR Très Intensif
Visi : 
Plafond : 
>= 8 km
>= 3000ft
5 à 8 km
1000 à 3000 ft
1500m à 5 km
500 à 1000 ft
800 à 1500m
200 à 500 ft
< 800m
< 200 ft
Symboles :   Orages  Brouillard  Fortes neiges  Fortes précipitations  Vent > 20 kt
SIGMETs :   Divers  Orages  Givrage  Turbulence  Onde Orograph.  Cendres Volcan.






- Altitude de l'aérodrome : 117 ft
- Code IATA : NWI


EGSH - Norwich

DERNIER METAR :
  • 080650Z 19004KT 150V220 0250 R27/0450N FZFG NSC M02/M02 Q1036 TEMPO 0350 FZFG

METARs EXPIRÉS :
  • 080620Z 17004KT 150V210 0100 R27/0450N FZFG NSC M02/M02 Q1036
  • 080550Z 17004KT 140V200 0100 FZFG NSC M02/M02 Q1036 NOSIG
  • 080520Z AUTO 18005KT 0100 FZFG OVC000/// M01/M01 Q1036
  • 080450Z AUTO 21003KT 2500 BR BKN001/// M01/M01 Q1036
  • 080420Z AUTO 20003KT 2300 BR NCD M02/M03 Q1036

TAF TAF EGSH
Valide du 08 à 06h jusqu'au 08 à 15h UTC


080455Z 0806/0815 VRB04KT 3000 BR FEW045
TEMPO 0806/0811 0300 FZFG VV///
BECMG 0808/0811 19010KT 9999 NSW
ATIS : +44 1603 420 640



MET'MAP, la Météo Aéronautique d'un coup d'oeil ! - Copyright ORBIFLY Décembre 2007 - Disclaimer

ORBIFLY MET'MAP TEAM :

Programmation & Développement : Alexandra Zaïnal
Sur une idée originale de : Baudouin d'Aumeries
Soutien technique & logistique : Manuel Goepfert
Assistance : Marc-Olivier Méhu




SOURCES & CREDITS :

   NOAA